Tiempo atmosférico en la estación meteorológica de Quintanar De La Orden, Toledo (691 m.)



Fecha
DESCASC
Temp. máxima en grados centígrados (hora)
DESCASC
Temp. mínima en grados centígrados (hora)
DESCASC
Temp. media en grados centígrados
DESCASC
Racha de viento máxima en m/sg (hora)
DESCASC
Velocidad máxima media en intervalos de 10 minutos(hora)
DESCASC
Precipitaciones diarias en mm
DESCASC
Precipitaciones de 00:00 a 06:00 en mm
DESCASC
Precipitaciones de 06:00 a 12:00 en mm
DESCASC
Precipitaciones de 12:00 a 18:00 en mm
DESCASC
Precipitaciones de 18:00 a 24:00 en mm
DESCASC
17-10-2019 21.6 (17:40) 6.7 (08:00) 14.2 7.5 (17:30) 2.78 (15:40) 0 0 0 0 0
16-10-2019 20 (17:30) 6.1 (04:10) 13 5.28 (13:50) 1.94 (15:30) 0.1 0 0 0.1 0
15-10-2019 17.1 (16:50) 5.4 (08:10) 11.3 6.67 (16:40) 2.78 (18:40) 0.2 0.2 0 0 0
14-10-2019 21.1 (12:40) 10.3 (23:59) 15.7 14.17 (14:30) 7.78 (12:20) 0.4 0 0 0.1 0.3
13-10-2019 27.1 (17:10) 15.9 (00:00) 21.5 9.17 (16:00) 5.56 (17:50) 0 0 0 0 0
12-10-2019 26.8 (16:00) 16.3 (00:00) 21.5 7.5 (13:20) 2.78 (13:20) 0 0 0 0 0
10-10-2019 29 (17:30) 16.7 (00:00) 22.9 9.72 (09:40) 2.78 (09:50) 0.1 0 0 0.1 0
09-10-2019 29.5 (17:40) 15.1 (00:00) 22.3 4.72 (06:40) 1.94 (02:10) 0 0 0 0 0
08-10-2019 30.1 (15:30) 12.4 (00:00) 21.3 4.72 (11:30) 1.67 (03:00) 0.1 0 0 0.1 0
07-10-2019 27.4 (16:30) 11.5 (00:00) 19.4 8.33 (15:50) 3.06 (15:00) 0 0 0 0 0
06-10-2019 27.8 (17:10) 11.9 (00:00) 19.8 5 (18:10) 1.94 (16:10) 0 0 0 0 0
05-10-2019 27.5 (18:00) 12.3 (08:20) 19.9 5 (17:30) 2.22 (17:30) 0 0 0 0 0
04-10-2019 28.6 (17:20) 11 (00:00) 19.8 4.72 (16:50) 1.94 (12:50) 0 0 0 0 0
03-10-2019 24.9 (16:50) 9.6 (00:00) 17.3 6.94 (15:00) 2.78 (17:10) 0 0 0 0 0
02-10-2019 23.3 (17:10) 11.7 (00:00) 17.5 7.78 (16:30) 3.06 (14:40) 0.1 0 0.1 0 0
01-10-2019 27.6 (15:20) 14.6 (00:00) 21.1 7.78 (17:30) 3.33 (19:10) 0 0 0 0 0
30-09-2019 30.7 (16:20) 12.8 (00:00) 21.8 5.28 (23:10) 1.67 (19:00) 0 0 0 0 0
29-09-2019 30.2 (16:40) 16.4 (00:00) 23.3 5 (17:30) 1.94 (11:20) 0 0 0 0 0
28-09-2019 29.8 (17:40) 12.7 (00:00) 21.2 4.72 (17:00) 1.94 (17:00) 0 0 0 0 0
27-09-2019 29 (17:30) 13.8 (00:00) 21.4 5 (15:20) 1.94 (17:10) 0 0 0 0 0
26-09-2019 27.9 (17:10) 13.3 (00:00) 20.6 4.17 (10:40) 1.67 (14:40) 0 0 0 0 0
25-09-2019 23.8 (17:20) 15.3 (00:00) 19.5 6.11 (16:30) 2.5 (16:30) 0 0 0 0 0
24-09-2019 28.4 (17:40) 12.6 (00:00) 20.5 7.22 (22:40) 3.33 (22:30) 0 0 0 0 0
23-09-2019 23.1 (17:20) 11.5 (00:00) 17.3 4.17 (16:00) 1.67 (17:30) 0 0 0 0 0
22-09-2019 22.6 (17:30) 15.2 (00:00) 18.9 8.61 (13:10) 5.28 (13:10) 1.6 0 0 1.6 0
21-09-2019 22 (16:40) 15.8 (00:00) 18.9 6.94 (18:00) 4.17 (18:00) 2.9 2.9 0 0 0
20-09-2019 24.8 (17:40) 17.3 (00:00) 21 10.28 (19:30) 3.61 (19:30) 1.6 0 0 0 1.6

Gráficas

Temp. máximas Temp. mínimas Temp. medias Precipitaciones Rachas de viento máximas Velocidades máximas media en intervalos de 10 minutos

Datos horarios

Fecha y hora oficial Temperatura (ºC) Velocidad del viento (km/h) Dirección del viento Racha (km/h) Dirección de racha Precipitación (mm) Presión (hPa) Tendencia (hPa) Humedad (%)
2019-10-19 23:00:00 14.4 15 Sudoeste 27 Sudoeste 5 927.1 -0.5 91
2019-10-19 22:00:00 16.3 7 Sudoeste 26 Sudoeste 0 927.1 -1.2 65
2019-10-19 21:00:00 17.5 8 Sudoeste 20 Sudoeste 0 926.8 -1.9 54
2019-10-19 20:00:00 17.7 14 Sudoeste 32 Sudoeste 0 927.6 -1.5 53
2019-10-19 19:00:00 18.3 22 Sudoeste 39 Sudoeste 0 928.3 -1.5 51
2019-10-19 18:00:00 18.8 23 Sudoeste 39 Sudoeste 0 928.7 -1.6 55
2019-10-19 17:00:00 18.6 22 Sudoeste 35 Sudoeste 0 929.1 -2.1 60
2019-10-19 16:00:00 17.9 23 Sudoeste 46 Sudoeste 0 929.8 -2.3 65
2019-10-19 15:00:00 17.1 18 Sudoeste 35 Sudoeste 0 930.3 -2.1 62
2019-10-19 14:00:00 17.1 13 Sudoeste 29 Sudoeste 0 931.2 -1.3 62
2019-10-19 13:00:00 17.4 13 Sudoeste 29 Sudoeste 0 932.1 -0.4 64
2019-10-19 12:00:00 14.8 13 Sudoeste 27 Sudoeste 0 932.4 -0.1 78
2019-10-19 11:00:00 14.3 7 Sudoeste 16 Sudoeste 0 932.5 -0.3 81
2019-10-19 10:00:00 14.3 10 Sudoeste 14 Sudoeste 0 932.5 -0.4 76
2019-10-19 09:00:00 14 3 Sudoeste 11 Sudoeste 0 932.5 -0.5 81
2019-10-19 08:00:00 13.6 5 Sudoeste 11 Sudoeste 0 932.8 -0.5 85
2019-10-19 07:00:00 13.4 0 Calma 11 Sudoeste 0 932.9 -0.6 86
2019-10-19 06:00:00 13.6 8 Sudoeste 12 Sudoeste 0 933 -1.2 85
2019-10-19 05:00:00 14.2 0 Calma 10 Sudoeste 0 933.3 -1 83
2019-10-19 04:00:00 14.5 0 Calma 5 Sudoeste 0 933.5 -1.1 83
2019-10-19 03:00:00 14.6 3 Noroeste 12 Noroeste 0 934.2 -0.7 81
2019-10-19 02:00:00 15.5 5 Noroeste 10 Noroeste 0 934.3 -0.7 78
2019-10-19 01:00:00 16.1 5 Oeste 12 Sudoeste 0 934.6 -0.3 73
2019-10-19 00:00:00 16.3 5 Oeste 14 Sudeste 0 934.9 0 65
2019-10-18 23:00:00 16.7 5 Sudoeste 10 Sudoeste 0 935 0 64
2019-10-18 22:00:00 16.6 0 Calma 9 Sur 0 934.9 -0.3 62
2019-10-18 21:00:00 17 5 Oeste 10 Sudoeste 0 934.9 -0.4 59
2019-10-18 20:00:00 18.6 4 Oeste 22 Sudoeste 0 935 -1.3 52
2019-10-18 19:00:00 20.7 9 Sudoeste 24 Sudoeste 0 935.2 -0.8 46
2019-10-18 18:00:00 21.5 5 Oeste 26 Sudoeste 0 935.3 -1.8 47
2019-10-18 17:00:00 21.7 8 Oeste 26 Sudoeste 0 936.3 -1 47
2019-10-18 16:00:00 21.7 8 Oeste 30 Sudoeste 0 936 -2.2 48
2019-10-18 15:00:00 21.4 4 Oeste 29 Sudoeste 0 937.1 -1.3 52
2019-10-18 14:00:00 21.2 8 Oeste 26 Sudoeste 0 937.3 -1.1 59
2019-10-18 13:00:00 20.3 10 Oeste 23 Sudoeste 0 938.2 -0.3 62
2019-10-18 12:00:00 18.4 9 Sudoeste 22 Sudoeste 0 938.4 0.3 71
2019-10-18 11:00:00 17.1 8 Sudoeste 17 Sudoeste 0 938.4 0.2 77
2019-10-18 10:00:00 14.2 3 Sur 9 Sudoeste 0 938.5 0.4 83
2019-10-18 09:00:00 13.2 4 Sur 9 Sudeste 0 938.1 0 81
2019-10-18 08:00:00 13.3 3 Sudoeste 11 Sudoeste 0 938.2 0.1 78
2019-10-18 07:00:00 14 3 Sur 10 Sudeste 0 938.1 -0.7 77
2019-10-18 06:00:00 14.5 4 Sur 9 Sudoeste 0 938.1 -0.6 76
2019-10-18 05:00:00 14.2 3 Sur 10 Sudoeste 0 938.1 -0.8 77
2019-10-18 04:00:00 14.1 2 Sudeste 12 Sudeste 0 938.8 -0.5 78
2019-10-18 03:00:00 14.2 2 Sur 8 Sudoeste 0 938.7 -0.8 78
2019-10-18 02:00:00 14.5 3 Sur 9 Sudeste 0 938.9 -1 79
2019-10-18 01:00:00 13.6 0 Calma 3 Nordeste 0 939.3 0.1 79
2019-10-18 00:00:00 14.1 0 Calma 5 Nordeste 0 939.5 0.3 76
2019-10-17 23:00:00 15.4 0 Calma 5 Nordeste 0 939.9 1.3 72
2019-10-17 22:00:00 15.5 3 Nordeste 6 Nordeste 0 939.2 1.1 71
2019-10-17 21:00:00 16.7 3 Nordeste 7 Nordeste 0 939.2 1.2 66
2019-10-17 20:00:00 18 4 Nordeste 8 Nordeste 0 938.6 0.5 60
2019-10-17 19:00:00 19.5 2 Norte 18 Noroeste 0 938.1 -0.4 54
2019-10-17 18:00:00 20.8 9 Noroeste 27 Noroeste 0 938 -1 50
2019-10-17 17:00:00 20.8 4 Noroeste 17 Noroeste 0 938.1 -1.4 48
2019-10-17 16:00:00 19.7 5 Noroeste 22 Noroeste 0 938.5 -1.5 51
2019-10-17 15:00:00 19.4 3 Oeste 18 Noroeste 0 939 -1.1 51
2019-10-17 14:00:00 16.8 7 Noroeste 18 Noroeste 0 939.5 -0.9 54
2019-10-17 13:00:00 15.8 3 Oeste 14 Sudoeste 0 940 0.2 54
2019-10-17 12:00:00 15 0 Calma 17 Sudoeste 0 940.1 0.7 57
2019-10-17 11:00:00 13.1 3 Sudoeste 9 Sudoeste 0 940.4 1.7 61
2019-10-17 10:00:00 9.4 0 Calma 5 Sudoeste 0 939.8 1.3 69
2019-10-17 09:00:00 7.3 0 Calma 4 Sudeste 0 939.4 1.4 76
2019-10-17 08:00:00 6.7 0 Calma 3 Sudeste 0 938.7 0.4 76
2019-10-17 07:00:00 7.5 0 Calma 6 Sudeste 0 938.5 -0.2 74
2019-10-17 06:00:00 7.5 0 Calma 7 Sudeste 0 938 -0.6 74
2019-10-17 05:00:00 7.3 0 Calma 5 Sudoeste 0 938.3 -0.7 74
2019-10-17 04:00:00 7.2 3 Sudoeste 6 Sudoeste 0 938.7 -0.6 69
2019-10-17 03:00:00 9 0 Calma 3 Nordeste 0 938.6 -0.7 65
2019-10-17 02:00:00 9.6 2 Nordeste 8 Nordeste 0 939 0.3 59
2019-10-17 01:00:00 10.1 3 Nordeste 10 Nordeste 0 939.3 1 57
2019-10-17 00:00:00 10.8 5 Nordeste 10 Norte 0 939.3 0.8 53
2019-10-16 23:00:00 12.5 6 Nordeste 11 Nordeste 0 938.7 0.2 48
2019-10-16 22:00:00 14.3 5 Sudoeste 10 Sudoeste 0 938.3 0.7 43
2019-10-16 21:00:00 15.5 3 Sudoeste 5 Sudoeste 0 938.5 0.9 42
2019-10-16 20:00:00 16.8 3 Sudoeste 8 Noroeste 0 938.5 0.3 39
2019-10-16 19:00:00 18.2 4 Sudoeste 19 Sudoeste 0 937.6 -1.3 35
2019-10-16 18:00:00 19.7 5 Sudoeste 15 Sudoeste 0 937.6 -1.8 34
2019-10-16 17:00:00 19.6 3 Sudoeste 17 Sudoeste 0 938.2 -1.9 34
2019-10-16 16:00:00 18.5 7 Sudoeste 15 Sudoeste 0 938.9 -1.9 37
2019-10-16 15:00:00 17.7 5 Sudoeste 15 Sudoeste 0 939.4 -1.9 40
2019-10-16 14:00:00 16.7 3 Noroeste 19 Sudoeste 0 940.1 -1.8 43
2019-10-16 13:00:00 16.7 0 Calma 12 Noroeste 0.1 940.8 -0.3 48
2019-10-16 12:00:00 14.7 4 Sudoeste 10 Sudoeste 0 941.3 0.6 54
2019-10-16 11:00:00 11.3 4 Sudoeste 8 Sudoeste 0 941.9 1.4 65
2019-10-16 10:00:00 8.1 0 Calma 4 Sudeste 0 941.1 0.5 72
2019-10-16 09:00:00 6.9 0 Calma 7 Sudeste 0 940.7 0.6 74
2019-10-16 08:00:00 6.5 2 Sudeste 12 Sudeste 0 940.5 -0.4 73
2019-10-16 07:00:00 6.9 3 Sudeste 9 Sudeste 0 940.6 -0.3 72
2019-10-16 06:00:00 6.6 0 Calma -- -- 0 940.1 -1 75
2019-10-16 05:00:00 6.7 0 Calma 3 Sudoeste 0 940.9 -0.1 75
2019-10-16 04:00:00 6.3 0 Calma 3 Sudoeste 0 940.9 -0.3 72
2019-10-16 03:00:00 7.2 0 Calma 6 Nordeste 0 941.1 -0.6 68
2019-10-16 02:00:00 7.9 3 Nordeste 6 Nordeste 0 941 -0.2 63
2019-10-16 01:00:00 8.8 2 Nordeste 5 Nordeste 0 941.2 0.6 60
2019-10-16 00:00:00 9.5 3 Nordeste 6 Nordeste 0 941.7 1 54
2019-10-15 23:00:00 10.6 3 Nordeste 7 Nordeste 0 941.2 1.5 50
2019-10-15 22:00:00 12.3 5 Nordeste 10 Nordeste 0 940.6 0.5 46
2019-10-15 21:00:00 13.1 3 Sudoeste 7 Sudoeste 0 940.7 1.5 43
2019-10-15 20:00:00 14.4 3 Sudoeste 10 Sudoeste 0 939.7 0 41
2019-10-15 19:00:00 15.6 8 Sudoeste 18 Sudoeste 0 940.1 0.2 36
2019-10-15 18:00:00 16.6 6 Oeste 20 Sudoeste 0 939.2 -1.2 35
2019-10-15 17:00:00 16.7 2 Noroeste 24 Sudoeste 0 939.7 -1.3 33
2019-10-15 16:00:00 16.5 6 Noroeste 21 Noroeste 0 939.9 -1.8 36
2019-10-15 15:00:00 15.4 5 Norte 19 Noroeste 0 940.4 -1.3 40
2019-10-15 14:00:00 14.3 8 Nordeste 21 Norte 0 941 -0.6 46
2019-10-15 13:00:00 13.1 6 Norte 17 Noroeste 0 941.7 0.5 53
2019-10-15 12:00:00 11.5 5 Norte 14 Nordeste 0 941.7 1.5 60
2019-10-15 11:00:00 9.3 5 Noroeste 9 Noroeste 0 941.6 1.9 76
2019-10-15 10:00:00 7.3 0 Calma 7 Sudoeste 0 941.2 1.8 88
2019-10-15 09:00:00 6 2 Noroeste 9 Noroeste 0 940.2 1.1 92
2019-10-15 08:00:00 5.6 3 Noroeste 8 Noroeste 0 939.7 0.7 92
2019-10-15 07:00:00 6.4 0 Calma 10 Noroeste 0 939.4 0.6 92
2019-10-15 06:00:00 7.1 3 Noroeste 13 Noroeste 0 939.1 0.3 91
2019-10-15 05:00:00 8.2 2 Noroeste 17 Noroeste 0 939 0.6 89
2019-10-15 04:00:00 7.9 4 Noroeste 9 Sudoeste 0.1 938.8 1.1 91
2019-10-15 03:00:00 8.7 0 Calma 10 Noroeste 0 938.8 1.1 91
2019-10-15 02:00:00 8.9 5 Noroeste 14 Noroeste 0 938.4 1.3 92
2019-10-15 01:00:00 9.6 4 Sudoeste 12 Noroeste 0.1 937.7 1.1 89
2019-10-15 00:00:00 10.4 0 Calma 16 Noroeste 0 937.7 1.7 88
2019-10-14 23:00:00 11.4 6 Noroeste 16 Noroeste 0.2 937.1 1.7 88
2019-10-14 22:00:00 11.4 8 Noroeste 36 Noroeste 0.1 936.6 2.5 88
2019-10-14 21:00:00 12.2 17 Noroeste 41 Noroeste 0 936 2.8 73
2019-10-14 20:00:00 12.4 19 Noroeste 48 Noroeste 0 935.4 2.3 69
2019-10-14 19:00:00 18.5 8 Noroeste 34 Sudoeste 0 934.1 0.9 39
2019-10-14 18:00:00 20.4 6 Oeste 43 Sudoeste 0 933.2 -0.1 37
2019-10-14 17:00:00 20 11 Sudoeste 30 Sudoeste 0 933.1 -0.8 44
2019-10-14 16:00:00 19.7 5 Oeste 39 Sudoeste 0 933.2 -1.2 47
2019-10-14 15:00:00 20.2 3 Oeste 51 Sudoeste 0.1 933.3 -1.2 53
2019-10-14 14:00:00 19.8 25 Sudoeste 46 Sudoeste 0 933.9 -0.5 53
2019-10-14 13:00:00 19.6 22 Sudoeste 48 Sudoeste 0 934.4 0 51
2019-10-14 12:00:00 19.7 25 Sudoeste 39 Sudoeste 0 934.5 0.8 55
2019-10-14 11:00:00 18.9 21 Sudoeste 40 Sudoeste 0 934.4 1.9 62
2019-10-14 10:00:00 18.2 19 Sudoeste 32 Sudoeste 0 934.4 2.2 64
2019-10-14 09:00:00 18.4 17 Sudoeste 27 Sudoeste 0 933.7 1.3 51
2019-10-14 08:00:00 18.6 8 Sur 19 Sudeste 0 932.5 0.4 55
2019-10-14 07:00:00 17.6 5 Sudeste 17 Sudeste 0 932.2 -0.2 74
2019-10-14 06:00:00 17.3 9 Sur 23 Sudeste 0 932.4 -0.2 85
2019-10-14 05:00:00 17.3 7 Sudeste 26 Sudeste 0 932.1 -1.8 85
2019-10-14 04:00:00 17.6 8 Sudeste 26 Sudeste 0 932.4 -1.6 79
2019-10-14 03:00:00 17.8 10 Sudeste 28 Sudeste 0 932.6 -2.2 74
2019-10-14 02:00:00 17.9 10 Sudeste 26 Sudeste 0 933.9 -1.4 65
2019-10-14 01:00:00 18.7 8 Sudeste 21 Sudeste 0 934 -1.1 36
2019-10-14 00:00:00 19 3 Sudeste 13 Sudeste 0 934.8 -0.1 36
2019-10-13 23:00:00 19.6 4 Sudeste 12 Sur 0 935.3 0.4 35
2019-10-13 22:00:00 19.7 3 Sudeste 8 Sur 0 935.1 0 35
2019-10-13 21:00:00 21.5 0 Calma 5 Sur 0 934.9 -0.2 31
2019-10-13 20:00:00 23 4 Sudoeste 31 Sudoeste 0.1 934.9 -0.3 27
2019-10-13 19:00:00 25.4 13 Sudoeste 31 Sudoeste 0 935.1 -1 24
2019-10-13 18:00:00 26.4 14 Sudoeste 32 Sudoeste 0 935.1 -1.2 23
2019-10-13 17:00:00 26.5 14 Sudoeste 28 Sudoeste 0 935.2 -1.8 28
2019-10-13 16:00:00 25.9 15 Sudoeste 33 Sudoeste 0 936.1 -1.5 30
2019-10-13 15:00:00 24.8 9 Sudoeste 23 Sudoeste 0 936.3 -1.7 35
2019-10-13 14:00:00 24.2 9 Sudoeste 21 Sudoeste 0 937 -0.9 41
2019-10-13 13:00:00 23 5 Sudoeste 19 Sur 0 937.6 0.3 51
2019-10-13 12:00:00 21.1 8 Sur 18 Sudoeste 0 938 1.1 61
2019-10-13 11:00:00 18.8 7 Sur 20 Sur 0 937.9 1.6 73
2019-10-13 10:00:00 17.3 6 Sur 15 Sudeste 0 937.3 1.2 88
2019-10-13 09:00:00 16.1 6 Sudeste 20 Sudeste 0 936.9 0.8 92
2019-10-13 08:00:00 16 6 Sudeste 24 Sudeste 0 936.3 0.3 92
2019-10-13 07:00:00 16.3 9 Sudeste 22 Sudeste 0 936.1 0.2 91
2019-10-13 06:00:00 16.6 7 Sudeste 26 Sudeste 0 936.1 -0.4 90
2019-10-13 05:00:00 17 7 Sudeste 22 Sudeste 0 936 -1.1 89
2019-10-13 04:00:00 17.2 9 Sudeste 26 Sudeste 0 935.9 -1.3 89
2019-10-13 03:00:00 17.5 8 Sudeste 25 Sudeste 0 936.5 -0.6 87
2019-10-13 02:00:00 18.3 4 Sudeste 23 Sur 0 937.1 -0.6 84
2019-10-13 01:00:00 18.7 3 Este 18 Sudeste 0 937.2 0.4 79
2019-10-13 00:00:00 19.1 6 Este 23 Nordeste 0 937.1 0.9 74
2019-10-12 23:00:00 20.4 5 Este 24 Sudeste 0 937.7 2.1 69
2019-10-12 22:00:00 20.3 8 Sudeste 26 Sudeste 0 936.8 1 67
2019-10-12 21:00:00 21.4 8 Sudeste 21 Sur 0 936.2 0.3 49
2019-10-12 20:00:00 22.6 6 Sudeste 19 Sudeste 0 935.6 -0.8 43
2019-10-12 19:00:00 24.3 6 Sudeste 19 Sur 0 935.8 -0.9 39
2019-10-12 18:00:00 25.5 4 Sudeste 22 Sudeste 0 935.9 -1.3 37
2019-10-12 17:00:00 25.2 7 Sudeste 22 Sur 0 936.4 -1.6 36
2019-10-12 16:00:00 26.5 8 Sudeste 22 Sudoeste 0 936.7 -1.9 37
2019-10-12 15:00:00 25.4 9 Sudeste 22 Sudoeste 0 937.2 -1.9 43
2019-10-12 14:00:00 23.3 8 Sudeste 27 Sudeste 0 938 -0.7 49
2019-10-12 13:00:00 21 8 Sudeste 23 Sudeste 0 938.6 0.1 62
2019-10-12 12:00:00 19 8 Sudeste 23 Sudeste 0 939.1 1.3 73
2019-10-12 11:00:00 17.7 9 Sudeste 23 Sudeste 0 938.7 1.2 80
2019-10-12 10:00:00 17 8 Sudeste 22 Sudeste 0 938.5 0.5 87
2019-10-12 09:00:00 16.4 4 Sudeste 22 Sudeste 0 937.8 0.2 90
2019-10-12 08:00:00 16.6 8 Sudeste 23 Sudeste 0 937.5 -0.4 88
2019-10-12 07:00:00 17.1 7 Sur 26 Sudeste 0 938 -0.5 82
2019-10-12 06:00:00 17.4 9 Sudeste 27 Sudeste 0 937.6 -1 82
2019-10-12 05:00:00 17.6 5 Sudeste 23 Sudeste 0 937.9 -1 82
2019-10-12 04:00:00 17.7 7 Sudeste 24 Sudeste 0 938.5 0 81
2019-10-12 03:00:00 18.4 6 Sudeste 21 Sudeste 0 938.6 0 71
2019-10-12 02:00:00 18.8 8 Sudeste 21 Sudeste 0 938.9 0.7 68
2019-10-12 01:00:00 19.7 6 Sudeste 25 Sudeste 0 938.5 0.2 63
2019-10-12 00:00:00 20.6 6 Sudeste 20 Sudeste 0 938.6 0.5 58
2019-10-11 23:00:00 21.3 7 Sudeste 21 Sudeste 0 938.2 0.6 50
2019-10-11 22:00:00 22.2 4 Sudeste 18 Sudeste 0 938.3 0.3 45
2019-10-11 21:00:00 22.9 4 Sudeste 10 Sudeste 0 938.1 0.2 39
2019-10-11 20:00:00 23.8 0 Calma 14 Sur 0 937.6 -0.7 37
2019-10-11 19:00:00 25.4 5 Sur 19 Sudeste 0 938 -0.1 35
2019-10-11 18:00:00 26 6 Sur 18 Sudeste 0 937.9 -1.1 37
2019-10-11 17:00:00 27.2 6 Sur 19 Sudeste 0 938.3 -1.6 37
2019-10-11 16:00:00 28.4 5 Sur 19 Sudoeste 0 938.1 -2.8 37
2019-10-11 15:00:00 25.9 6 Sur 19 Sudeste 0 939 -2.3 43
2019-10-11 14:00:00 26.2 7 Sudeste 22 Sudeste 0 939.9 -1.6 47
2019-10-11 13:00:00 23.3 8 Sudeste 28 Sudeste 0 940.9 -0.2 54
2019-10-11 12:00:00 21.3 8 Sudeste 26 Sudeste 0 941.3 1.1 63
2019-10-11 11:00:00 19 9 Sudeste 36 Sudeste 0 941.5 1.5 73
2019-10-11 10:00:00 17.7 9 Sudeste 30 Sudeste 0 941.1 1.3 81
2019-10-11 09:00:00 16.7 8 Sudeste 28 Sur 0 940.2 0.6 86
2019-10-11 08:00:00 16.4 8 Sudeste 27 Sudeste 0 940 0.2 87
2019-10-11 07:00:00 16.6 4 Sudeste 21 Sudoeste 0 939.8 0 88
2019-10-11 06:00:00 16.7 5 Sudeste 26 Sudeste 0 939.6 -0.4 88
2019-10-11 05:00:00 17 7 Sudeste 27 Sudeste 0 939.8 -0.4 88
2019-10-11 04:00:00 17 6 Sudeste 25 Sudeste 0 939.8 -0.4 87
2019-10-11 03:00:00 17.3 4 Sudeste 27 Sudeste 0 940 -0.2 85
2019-10-11 02:00:00 17.4 8 Sudeste 31 Sudeste 0 940.2 0.3 81
2019-10-11 01:00:00 18.3 9 Sudeste 32 Sudeste 0 940.2 0.6 78
2019-10-11 00:00:00 18.9 10 Sudeste 32 Sudeste 0 940.2 1.1 72
2019-10-10 23:00:00 19.9 9 Sudeste 25 Sudeste 0 939.9 0.9 66
2019-10-10 22:00:00 21.1 6 Sudeste 28 Sudeste 0 939.6 0.7 57
2019-10-10 21:00:00 22.3 6 Sudeste 23 Sudeste 0 939.1 0.4 51
2019-10-10 20:00:00 23.9 8 Sudeste 19 Sudeste 0 939 0.2 46
2019-10-10 19:00:00 25.8 7 Sudeste 17 Sudeste 0 938.9 -0.1 42
2019-10-10 18:00:00 28.1 4 Sudeste 14 Sudeste 0 938.7 -0.4 39
2019-10-10 17:00:00 28.9 4 Sudeste 19 Sudeste 0 938.8 -1.1 39
2019-10-10 16:00:00 28.2 6 Sur 19 Sudeste 0 939 -1.3 39
2019-10-10 15:00:00 28.1 6 Sudeste 21 Sudeste 0 939.1 -1.5 41
2019-10-10 14:00:00 26.6 6 Sudeste 27 Sudeste 0.1 939.9 -0.9 46
2019-10-10 13:00:00 24.8 8 Sudeste 25 Sudeste 0 940.3 0.6 52
2019-10-10 12:00:00 22.1 10 Sudeste 28 Sudeste 0 940.6 1.4 61
2019-10-10 11:00:00 20 7 Sudeste 31 Sudeste 0 940.8 1.8 72
2019-10-10 10:00:00 18.1 10 Sudeste 35 Sudeste 0 939.7 0.9 81
2019-10-10 09:00:00 17.2 9 Sudeste 28 Sudeste 0 939.2 0.8 85
2019-10-10 08:00:00 16.9 5 Sudeste 28 Sudeste 0 939 1.1 85
2019-10-10 07:00:00 17.2 6 Sudeste 25 Sudeste 0 938.8 0.8 85
2019-10-10 06:00:00 17.4 7 Sudeste 26 Sudoeste 0 938.4 0 85
2019-10-10 05:00:00 17.6 8 Sudeste 27 Sudeste 0 937.9 -0.2 86
2019-10-10 04:00:00 17.8 8 Sudeste 33 Sudeste 0 938 -0.6 87
2019-10-10 03:00:00 18 7 Sudeste 26 Sudeste 0 938.4 0.4 85
2019-10-10 02:00:00 18.9 7 Sudeste 24 Sudeste 0 938.1 0.4 78
2019-10-10 01:00:00 19.6 7 Sudeste 24 Sudeste 0 938.6 1.4 62
2019-10-10 00:00:00 19.4 2 Nordeste 4 Nordeste 0 938 1.3 53
2019-10-09 23:00:00 20.4 2 Nordeste 8 Nordeste 0 937.7 1.3 48
2019-10-09 22:00:00 22 3 Nordeste 11 Nordeste 0 937.2 0.9 44
2019-10-09 21:00:00 23.2 4 Nordeste 7 Nordeste 0 936.7 0.7 43
2019-10-09 20:00:00 26 3 Nordeste 5 Nordeste 0 936.4 -0.1 37
2019-10-09 19:00:00 27.7 3 Noroeste 12 Noroeste 0 936.3 -0.5 35
2019-10-09 18:00:00 29.1 2 Noroeste 13 Noroeste 0 936 -0.9 32
2019-10-09 17:00:00 28.2 5 Noroeste 14 Noroeste 0 936.5 -0.9 33
2019-10-09 16:00:00 28.2 3 Noroeste 13 Nordeste 0 936.8 -0.5 34
2019-10-09 15:00:00 28 3 Norte 15 Noroeste 0 936.9 -1.2 37
2019-10-09 14:00:00 26.4 3 Noroeste 13 Sudoeste 0 937.4 -0.9 39
2019-10-09 13:00:00 25.3 5 Sudoeste 13 Sudoeste 0 937.3 -0.8 44
2019-10-09 12:00:00 22.5 6 Sur 13 Sudoeste 0 938.1 0.8 52
2019-10-09 11:00:00 19.6 2 Oeste 8 Sudeste 0 938.3 1.1 62
2019-10-09 10:00:00 17.7 3 Sudeste 12 Sudeste 0 938.1 1.4 77
2019-10-09 09:00:00 15.4 0 Calma 8 Sudeste 0 937.3 0.5 86
2019-10-09 08:00:00 15.6 3 Nordeste 12 Sudeste 0 937.2 0.4 84
2019-10-09 07:00:00 16.9 6 Sudeste 17 Sudeste 0 936.7 -0.3 85
2019-10-09 06:00:00 16.9 3 Sur 8 Sudoeste 0 936.8 -0.5 84
2019-10-09 05:00:00 17.9 4 Sudeste 14 Sudeste 0 936.8 -0.9 79
2019-10-09 04:00:00 17.7 5 Sudeste 12 Sudeste 0 937 -0.5 79
2019-10-09 03:00:00 17.2 0 Calma 12 Sudoeste 0 937.3 -0.3 77
2019-10-09 02:00:00 19.3 3 Sur 9 Sudeste 0 937.7 -0.1 72
2019-10-09 01:00:00 19.9 2 Sudeste 9 Sudeste 0 937.5 -0.1 68
2019-10-09 00:00:00 20.6 2 Sudeste 9 Sudeste 0 937.6 0.2 59
2019-10-08 23:00:00 21 3 Sudeste 10 Sudoeste 0 937.8 0.5 47
2019-10-08 22:00:00 22 0 Calma 4 Sudeste 0 937.6 0.2 46
2019-10-08 21:00:00 23.4 0 Calma 4 Nordeste 0 937.4 0.3 43
2019-10-08 20:00:00 25.4 0 Calma 4 Noroeste 0 937.3 -0.4 39
2019-10-08 19:00:00 27.4 0 Calma 9 Noroeste 0 937.4 -0.7 35
2019-10-08 18:00:00 29.8 0 Calma 12 Sudoeste 0 937.1 -1.3 32
2019-10-08 17:00:00 29.4 4 Sudoeste 15 Noroeste 0 937.7 -1.3 33
2019-10-08 16:00:00 29.5 3 Sudoeste 13 Sudoeste 0.1 938.1 -2 35
2019-10-08 15:00:00 28.5 0 Calma 12 Sudoeste 0 938.4 -1.6 37
2019-10-08 14:00:00 27.7 4 Sur 13 Sudoeste 0 939 -1.7 40
2019-10-08 13:00:00 26.5 5 Sur 13 Sudoeste 0 940.1 0.2 43
2019-10-08 12:00:00 23.9 4 Sur 17 Sudeste 0.1 940 0 49
2019-10-08 11:00:00 21.1 6 Sur 17 Sudeste 0 940.7 0.8 57
2019-10-08 10:00:00 15.9 0 Calma 8 Nordeste 0 939.9 0.5 68
2019-10-08 09:00:00 13.1 3 Nordeste 6 Nordeste 0 940 1.2 71
2019-10-08 08:00:00 12.8 0 Calma 4 Sudoeste 0 939.9 1 71
2019-10-08 07:00:00 12.9 3 Sudoeste 10 Sudoeste 0 939.4 0.5 69
2019-10-08 06:00:00 14.4 0 Calma 3 Nordeste 0 938.8 -0.4 63
2019-10-08 05:00:00 14.5 0 Calma 4 Nordeste 0 938.9 -0.7 62
2019-10-08 04:00:00 15.1 0 Calma 11 Nordeste 0 938.9 -0.6 62
2019-10-08 03:00:00 15.3 6 Nordeste 13 Norte 0 939.2 -0.2 62
2019-10-08 02:00:00 16.7 3 Nordeste 8 Nordeste 0 939.6 0 58
2019-10-08 01:00:00 17.5 3 Nordeste 9 Nordeste 0 939.5 0.1 56
2019-10-08 00:00:00 18.6 0 Calma 7 Nordeste 0 939.4 0.9 54
2019-10-07 23:00:00 19.3 4 Nordeste 8 Sur 0 939.6 0.9 50
2019-10-07 22:00:00 21.1 0 Calma 6 Noroeste 0 939.4 0.8 45
2019-10-07 21:00:00 22.9 3 Norte 7 Noroeste 0 938.5 0.2 40
2019-10-07 20:00:00 24.2 3 Noroeste 11 Noroeste 0 938.7 0.4 37
2019-10-07 19:00:00 25.9 4 Norte 20 Nordeste 0 938.6 0.1 35
2019-10-07 18:00:00 26.9 8 Nordeste 21 Nordeste 0 938.3 -0.5 35
2019-10-07 17:00:00 27.1 7 Nordeste 24 Nordeste 0 938.3 -1.6 34
2019-10-07 16:00:00 26.8 7 Norte 30 Norte 0 938.5 -1.4 33
2019-10-07 15:00:00 25.8 11 Nordeste 24 Nordeste 0 938.8 -1.6 31
2019-10-07 14:00:00 25 4 Norte 14 Nordeste 0 939.9 -0.5 36
2019-10-07 13:00:00 23.1 3 Norte 10 Noroeste 0 939.9 0.1 40
2019-10-07 12:00:00 20.9 4 Nordeste 13 Nordeste 0 940.4 0.3 47
2019-10-07 11:00:00 19 6 Nordeste 14 Nordeste 0 940.4 1.3 56
2019-10-07 10:00:00 14.8 4 Nordeste 7 Nordeste 0 939.8 0.6 67
2019-10-07 09:00:00 12 0 Calma 3 Sudoeste 0 940.1 1.5 71
2019-10-07 08:00:00 12.1 0 Calma 4 Nordeste 0 939.1 0.5 69
2019-10-07 07:00:00 12.4 2 Nordeste 7 Sudoeste 0 939.2 0.2 66
2019-10-07 06:00:00 12.9 0 Calma 8 Nordeste 0 938.6 -0.7 63
2019-10-07 05:00:00 13.5 5 Nordeste 8 Nordeste 0 938.6 -1 60
2019-10-07 04:00:00 13.6 0 Calma 10 Nordeste 0 939 -0.5 58
2019-10-07 03:00:00 14.6 2 Nordeste 11 Nordeste 0 939.3 -0.5 54
2019-10-07 02:00:00 15.8 5 Nordeste 10 Nordeste 0 939.6 0 50
2019-10-07 01:00:00 17.4 2 Nordeste 9 Nordeste 0 939.5 0.3 48
2019-10-07 00:00:00 17.6 0 Calma 7 Norte 0 939.8 1.1 47
2019-10-06 23:00:00 17.3 0 Calma 6 Sudoeste 0 939.6 1.3 46
2019-10-06 22:00:00 19.8 0 Calma 5 Nordeste 0 939.2 1.1 41
2019-10-06 21:00:00 21.8 2 Nordeste 10 Noroeste 0 938.7 0.3 37
2019-10-06 20:00:00 23.8 5 Norte 11 Noroeste 0 938.3 -0.5 33
2019-10-06 19:00:00 25.6 4 Norte 18 Noroeste 0 938.1 -0.8 31
2019-10-06 18:00:00 26.9 4 Norte 15 Noroeste 0 938.4 -1.1 31
2019-10-06 17:00:00 27.1 7 Noroeste 17 Noroeste 0 938.8 -1.3 34
2019-10-06 16:00:00 26.2 6 Noroeste 17 Noroeste 0 938.9 -1.5 36
2019-10-06 15:00:00 26 2 Oeste 14 Noroeste 0 939.5 -1.4 39
2019-10-06 14:00:00 24.8 3 Noroeste 13 Sudoeste 0 940.1 -0.7 40
2019-10-06 13:00:00 23.1 2 Noroeste 8 Noroeste 0 940.4 0.6 47
2019-10-06 12:00:00 20.1 2 Oeste 8 Sudoeste 0 940.9 1.4 55
2019-10-06 11:00:00 17.5 4 Noroeste 9 Noroeste 0 940.8 2 65
2019-10-06 10:00:00 14.4 0 Calma 4 Noroeste 0 939.8 1.6 76
2019-10-06 09:00:00 12.2 0 Calma -- -- 0 939.5 1.1 79
2019-10-06 08:00:00 12.3 0 Calma -- -- 0 938.8 0.6 77
2019-10-06 07:00:00 13.1 0 Calma -- -- 0 938.2 0 75
2019-10-06 06:00:00 13.3 0 Calma 4 Sudeste 0 938.4 -0.2 75
2019-10-06 05:00:00 13.4 0 Calma 4 Sudoeste 0 938.2 0.3 73
2019-10-06 04:00:00 14.6 0 Calma 5 Norte 0 938.2 -0.2 67
2019-10-06 03:00:00 15.2 0 Calma 3 Nordeste 0 938.6 0.2 65
2019-10-06 02:00:00 15.5 0 Calma 4 Nordeste 0 937.9 0.1 62
2019-10-06 01:00:00 16.7 0 Calma 4 Nordeste 0 938.4 0.8 58
2019-10-06 00:00:00 17.2 0 Calma 6 Nordeste 0 938.4 1.1 56
2019-10-05 23:00:00 18.6 3 Nordeste 5 Nordeste 0 937.8 1.1 50
2019-10-05 22:00:00 20.5 3 Nordeste 4 Nordeste 0 937.6 1.2 47
2019-10-05 21:00:00 22.1 2 Nordeste 5 Nordeste 0 937.3 0.9 43
2019-10-05 20:00:00 24.1 2 Nordeste 9 Nordeste 0 936.7 0.3 39
2019-10-05 19:00:00 25.6 2 Norte 9 Noroeste 0 936.4 -0.3 35
2019-10-05 18:00:00 26.8 8 Noroeste 18 Noroeste 0 936.4 -0.6 33
2019-10-05 17:00:00 26.6 4 Noroeste 18 Noroeste 0 936.4 -1.1 33
2019-10-05 16:00:00 26 5 Norte 17 Noroeste 0 936.7 -1.2 35
2019-10-05 15:00:00 25.5 4 Noroeste 14 Noroeste 0 937 -0.7 39
2019-10-05 14:00:00 24.9 3 Oeste 14 Sudoeste 0 937.5 -0.3 45
2019-10-05 13:00:00 23.2 4 Sudoeste 11 Sur 0 937.9 0.1 50
2019-10-05 12:00:00 20.7 2 Sudoeste 7 Sudoeste 0 937.7 0.6 56
2019-10-05 11:00:00 17.5 2 Oeste 7 Sudoeste 0 937.8 1 61
2019-10-05 10:00:00 15 0 Calma 7 Sudeste 0 937.8 1.1 66
2019-10-05 09:00:00 13.2 3 Sur 7 Sudoeste 0 937.1 0.6 69
2019-10-05 08:00:00 12.6 0 Calma 4 Sudeste 0 936.8 0.2 69
2019-10-05 07:00:00 13.1 0 Calma 3 Nordeste 0 936.7 -0.2 68
2019-10-05 06:00:00 13.4 0 Calma 4 Sudeste 0 936.5 -0.6 66
2019-10-05 05:00:00 13.7 2 Sudeste 5 Sudeste 0 936.6 -0.2 65
2019-10-05 04:00:00 13.7 0 Calma 4 Sudoeste 0 936.9 -0.3 65
2019-10-05 03:00:00 14.4 0 Calma 3 Nordeste 0 937.1 0.3 60
2019-10-05 02:00:00 15.3 2 Nordeste 7 Nordeste 0 936.8 0.2 57
2019-10-05 01:00:00 16.3 4 Nordeste 8 Nordeste 0 937.2 0.7 52
2019-10-05 00:00:00 17.2 5 Nordeste 10 Nordeste 0 936.8 0.7 50
2019-10-04 23:00:00 18.3 5 Nordeste 13 Nordeste 0 936.6 0.4 47
2019-10-04 22:00:00 19.9 0 Calma 9 Norte 0 936.5 0.7 46
2019-10-04 21:00:00 22.3 0 Calma 4 Sudoeste 0 936.1 0 39
2019-10-04 20:00:00 24.3 0 Calma 4 Sudoeste 0 936.2 0 35
2019-10-04 19:00:00 26.6 0 Calma 9 Sudoeste 0 935.8 -1 29
2019-10-04 18:00:00 27.5 3 Noroeste 14 Sudoeste 0 936.1 -1.3 27
2019-10-04 17:00:00 27.8 4 Sudoeste 17 Sudoeste 0 936.2 -1.8 27
2019-10-04 16:00:00 26.8 3 Noroeste 15 Noroeste 0 936.8 -1.9 29
2019-10-04 15:00:00 25.7 4 Noroeste 15 Sudoeste 0 937.4 -1.9 31
2019-10-04 14:00:00 24.8 5 Sudoeste 15 Sudoeste 0 938 -1.3 35
2019-10-04 13:00:00 22.9 6 Sudoeste 16 Sudoeste 0 938.7 -0.6 41
2019-10-04 12:00:00 20.6 4 Sur 9 Sur 0 939.3 0.2 47
2019-10-04 11:00:00 17.2 4 Sudoeste 8 Sudeste 0 939.3 0.6 55
2019-10-04 10:00:00 14.3 4 Sudeste 8 Sudeste 0 939.3 0.7 62
2019-10-04 09:00:00 11.4 2 Sudoeste 4 Sudeste 0 939.1 0.5 67
2019-10-04 08:00:00 11 0 Calma 3 Sudeste 0 938.7 0 67
2019-10-04 07:00:00 11.7 0 Calma 7 Sudeste 0 938.6 -0.1 64
2019-10-04 06:00:00 12.5 2 Sudeste 8 Sudeste 0 938.6 -0.2 63
2019-10-04 05:00:00 12.3 0 Calma 6 Sudeste 0 938.7 -0.1 65
2019-10-04 04:00:00 12.8 0 Calma 4 Nordeste 0 938.7 -0.3 62
2019-10-04 03:00:00 13.5 3 Nordeste 5 Nordeste 0 938.8 0 62
2019-10-04 02:00:00 13 0 Calma 7 Sudoeste 0 938.8 -0.3 63
2019-10-04 01:00:00 14.6 3 Nordeste 6 Nordeste 0 939 0.2 56
2019-10-04 00:00:00 15.3 2 Nordeste 4 Nordeste 0 938.8 0.2 54
2019-10-03 23:00:00 16.5 0 Calma 5 Sudoeste 0 939.1 0.6 50
2019-10-03 22:00:00 17.6 2 Nordeste 4 Nordeste 0 938.8 0.8 45
2019-10-03 21:00:00 19.2 0 Calma 4 Noroeste 0 938.6 0.5 40
2019-10-03 20:00:00 21.5 3 Noroeste 12 Nordeste 0 938.5 0.3 34
2019-10-03 19:00:00 23.2 5 Norte 25 Noroeste 0 938 -0.6 31
2019-10-03 18:00:00 24.3 8 Noroeste 23 Noroeste 0 938.1 -0.7 29
2019-10-03 17:00:00 23.8 9 Noroeste 21 Noroeste 0 938.2 -1.4 31
2019-10-03 16:00:00 22.9 7 Noroeste 21 Noroeste 0 938.6 -1.7 34
2019-10-03 15:00:00 22.4 8 Noroeste 25 Noroeste 0 938.8 -1.5 36
2019-10-03 14:00:00 20.6 8 Noroeste 21 Noroeste 0 939.6 -0.6 42
2019-10-03 13:00:00 19.7 4 Noroeste 13 Noroeste 0 940.3 0.4 46
2019-10-03 12:00:00 18.3 3 Norte 9 Noroeste 0 940.3 0.5 51
2019-10-03 11:00:00 15.7 4 Nordeste 11 Nordeste 0 940.2 0.8 62
2019-10-03 10:00:00 13 3 Nordeste 9 Nordeste 0 939.9 0.9 71
2019-10-03 09:00:00 10.3 3 Nordeste 6 Nordeste 0 939.8 0.9 78
2019-10-03 08:00:00 9.9 0 Calma 4 Sudoeste 0 939.4 0.8 78
2019-10-03 07:00:00 10.5 0 Calma 6 Noroeste 0 939 0.2 75
2019-10-03 06:00:00 10.2 2 Sudoeste 5 Nordeste 0 938.9 0.3 74
2019-10-03 05:00:00 11.7 2 Nordeste 4 Nordeste 0 938.6 -0.5 68
2019-10-03 04:00:00 12 0 Calma 6 Nordeste 0 938.8 -0.5 66
2019-10-03 03:00:00 12.6 4 Nordeste 11 Nordeste 0 938.6 -0.6 62
2019-10-03 02:00:00 13.6 4 Nordeste 13 Nordeste 0 939.1 -0.1 58
2019-10-03 01:00:00 14.5 5 Nordeste 9 Nordeste 0 939.3 0.7 54
2019-10-03 00:00:00 15.2 3 Nordeste 10 Nordeste 0 939.2 0.8 51
2019-10-02 23:00:00 15.4 4 Nordeste 10 Nordeste 0 939.2 1.3 49
2019-10-02 22:00:00 16.5 6 Nordeste 12 Nordeste 0 938.6 0.9 43
2019-10-02 21:00:00 18.3 5 Nordeste 12 Nordeste 0 938.4 0.9 37
2019-10-02 20:00:00 20 2 Norte 12 Nordeste 0 937.9 0.3 33
2019-10-02 19:00:00 21.5 4 Norte 21 Nordeste 0.1 937.7 0 31
2019-10-02 18:00:00 22.2 8 Norte 23 Nordeste 0 937.5 -0.3 32
2019-10-02 17:00:00 23 6 Norte 28 Nordeste 0 937.6 -0.2 32
2019-10-02 16:00:00 22.5 6 Norte 24 Nordeste 0 937.7 -0.6 33
2019-10-02 15:00:00 21.8 7 Nordeste 26 Norte 0 937.8 -1 37
2019-10-02 14:00:00 21 7 Nordeste 20 Norte 0 937.8 -0.4 43
2019-10-02 13:00:00 19.7 6 Nordeste 19 Nordeste 0 938.3 0.4 49
2019-10-02 12:00:00 18 8 Nordeste 17 Nordeste 0.1 938.8 1.1 57
2019-10-02 11:00:00 16.2 5 Nordeste 12 Nordeste 0 938.2 1.4 63
2019-10-02 10:00:00 13.7 2 Norte 9 Noroeste 0 937.9 1.5 73
2019-10-02 09:00:00 11.9 4 Noroeste 9 Noroeste 0 937.7 1 76
2019-10-02 08:00:00 12.7 0 Calma 8 Noroeste 0 936.8 0.5 74
2019-10-02 07:00:00 13.1 2 Sudoeste 10 Nordeste 0 936.4 0.1 72
2019-10-02 06:00:00 13.7 3 Norte 12 Noroeste 0 936.7 0.1 69
2019-10-02 05:00:00 13.8 4 Noroeste 12 Noroeste 0 936.3 -0.3 66
2019-10-02 04:00:00 14.9 3 Nordeste 9 Noroeste 0 936.3 -0.7 65
2019-10-02 03:00:00 15.4 5 Noroeste 10 Noroeste 0 936.6 -0.2 62
2019-10-02 02:00:00 15.7 0 Calma 10 Noroeste 0 936.6 0.6 59
2019-10-02 01:00:00 17.4 2 Norte 10 Noroeste 0 937 1.3 54
2019-10-02 00:00:00 17.8 3 Norte 13 Nordeste 0 936.8 1.6 54
2019-10-01 23:00:00 18.6 4 Nordeste 9 Nordeste 0 936 1.3 51
2019-10-01 22:00:00 19.7 2 Norte 9 Nordeste 0 935.7 1.5 47
2019-10-01 21:00:00 21.4 2 Norte 15 Noroeste 0 935.2 1.2 39
2019-10-01 20:00:00 23.3 8 Noroeste 20 Noroeste 0 934.7 0.7 33
2019-10-01 19:00:00 24.8 9 Noroeste 25 Noroeste 0 934.2 -0.2 28
2019-10-01 18:00:00 26.1 6 Norte 28 Noroeste 0 934 -0.2 25
2019-10-01 17:00:00 26.8 9 Noroeste 26 Noroeste 0 934 -1 28
2019-10-01 16:00:00 26 10 Noroeste 25 Noroeste 0 934.4 -1 31
2019-10-01 15:00:00 26.8 4 Oeste 27 Noroeste 0 934.2 -2.2 29
2019-10-01 14:00:00 25.5 8 Noroeste 17 Noroeste 0 935 -1.2 36
2019-10-01 13:00:00 23.8 6 Noroeste 15 Noroeste 0 935.4 -0.3 40
2019-10-01 12:00:00 21.8 5 Noroeste 12 Noroeste 0 936.4 1.3 46
2019-10-01 11:00:00 19.7 2 Sudoeste 7 Sudoeste 0 936.2 1.5 52
2019-10-01 10:00:00 16.8 3 Sudoeste 5 Sudoeste 0 935.7 1 58
2019-10-01 09:00:00 14.9 0 Calma 5 Sudeste 0 935.1 0.2 62
2019-10-01 08:00:00 15.2 2 Sudeste 5 Sudeste 0 934.7 -0.1 60
2019-10-01 07:00:00 15.8 0 Calma 9 Sudeste 0 934.7 -0.7 57
2019-10-01 06:00:00 15.9 3 Sudeste 10 Sudeste 0 934.9 -0.9 55
2019-10-01 05:00:00 15.9 3 Sudeste 6 Sudeste 0 934.8 -1.8 55
2019-10-01 04:00:00 15.8 0 Calma 10 Sudoeste 0 935.4 -0.8 54
2019-10-01 03:00:00 17.1 0 Calma 5 Nordeste 0 935.8 -0.8 47
2019-10-01 02:00:00 17.4 3 Oeste 10 Sudeste 0 936.6 0.2 44
2019-10-01 01:00:00 18.7 0 Calma 8 Sudeste 0 936.2 0 42
2019-10-01 00:00:00 19.6 0 Calma 19 Noroeste 0 936.6 0.6 38
2019-09-30 23:00:00 20.6 3 Sudeste 5 Sudeste 0 936.4 0.7 36
2019-09-30 22:00:00 21.9 2 Sudeste 4 Sudeste 0 936.2 -0.1 33
2019-09-30 21:00:00 23.7 2 Sur 5 Sudoeste 0 936 -0.2 31
2019-09-30 20:00:00 25.6 0 Calma 10 Sudoeste 0 935.7 -1.1 27
2019-09-30 19:00:00 27.9 6 Sudoeste 10 Sudoeste 0 936.3 -1 22
2019-09-30 18:00:00 29.2 4 Oeste 12 Sudoeste 0 936.2 -1.6 22
2019-09-30 17:00:00 29.2 2 Noroeste 14 Sudoeste 0 936.8 -2.1 23
2019-09-30 16:00:00 29.6 0 Calma 14 Noroeste 0 937.3 -2 23
2019-09-30 15:00:00 29.1 3 Sudoeste 12 Sudoeste 0 937.8 -1.3 24
2019-09-30 14:00:00 27.8 4 Sudoeste 10 Sudoeste 0 938.9 -0.9 28
2019-09-30 13:00:00 25.5 3 Sudoeste 9 Sudoeste 0 939.3 0.6 32
2019-09-30 12:00:00 22.4 3 Sudoeste 8 Sudeste 0 939.1 0.7 40
2019-09-30 11:00:00 19.9 3 Sudoeste 6 Sudoeste 0 939.8 1.5 50
2019-09-30 10:00:00 15.7 0 Calma 2 Sudoeste 0 938.7 0.5 63
2019-09-30 09:00:00 13.3 0 Calma 3 Nordeste 0 938.4 0.4 67
2019-09-30 08:00:00 12.8 0 Calma 4 Nordeste 0 938.3 -0.2 66
2019-09-30 07:00:00 13.1 0 Calma 4 Nordeste 0 938.2 -0.2 66
2019-09-30 06:00:00 13.9 0 Calma 7 Sudoeste 0 938 -0.9 62
2019-09-30 05:00:00 14.5 2 Sudoeste 10 Sur 0 938.5 -0.6 61
2019-09-30 04:00:00 15.3 0 Calma 4 Nordeste 0 938.4 -0.4 59
2019-09-30 03:00:00 16 0 Calma 4 Nordeste 0 938.9 -0.3 58
2019-09-30 02:00:00 16.4 0 Calma 6 Sudoeste 0 939.1 0.6 59
2019-09-30 01:00:00 17.3 0 Calma 6 Nordeste 0 938.8 0.2 55
2019-09-30 00:00:00 17.3 5 Nordeste 9 Nordeste 0 939.2 1.2 52
2019-09-29 23:00:00 19.4 4 Nordeste 10 Nordeste 0 938.5 0.6 43
2019-09-29 22:00:00 21.6 3 Nordeste 5 Nordeste 0 938.6 0.7 35
2019-09-29 21:00:00 23.7 3 Nordeste 6 Nordeste 0 938 -0.2 30
2019-09-29 20:00:00 26.1 3 Norte 9 Nordeste 0 937.9 -0.3 25
2019-09-29 19:00:00 28.1 2 Norte 12 Nordeste 0 937.9 -0.6 23
2019-09-29 18:00:00 28.8 3 Norte 18 Noroeste 0 938.2 -0.9 22
2019-09-29 17:00:00 29.5 4 Norte 14 Noroeste 0 938.2 -1.6 23
2019-09-29 16:00:00 29.3 4 Norte 15 Sudoeste 0 938.5 -1.4 24
2019-09-29 15:00:00 28.6 3 Oeste 15 Noroeste 0 939.1 -1 27
2019-09-29 14:00:00 27.7 4 Sudoeste 13 Sudoeste 0 939.8 -0.2 28
2019-09-29 13:00:00 25.5 4 Sudoeste 14 Sudoeste 0 939.9 0.3 37
2019-09-29 12:00:00 22.6 6 Sur 16 Sudoeste 0 940.1 0.6 45
2019-09-29 11:00:00 20.1 6 Sur 17 Sudoeste 0 940 1.4 59
2019-09-29 10:00:00 18.2 5 Sudeste 12 Sudeste 0 939.6 0.9 81
2019-09-29 09:00:00 16.6 2 Sudeste 9 Sudoeste 0 939.5 0.8 87
2019-09-29 08:00:00 16.7 4 Sur 12 Sudeste 0 938.6 -0.6 85
2019-09-29 07:00:00 17.3 0 Calma 13 Sudeste 0 938.7 -0.5 85
2019-09-29 06:00:00 17.5 4 Sudeste 15 Sudeste 0 938.7 -0.7 83
2019-09-29 05:00:00 17.5 3 Sur 12 Sudeste 0 939.2 0.1 79
2019-09-29 04:00:00 18.1 4 Sudeste 15 Sudeste 0 939.2 -0.1 76
2019-09-29 03:00:00 18.5 3 Sudeste 14 Sudeste 0 939.4 0.1 73
2019-09-29 02:00:00 19.4 3 Sudeste 17 Sudeste 0 939.1 -0.1 68
2019-09-29 01:00:00 20.1 5 Sudeste 15 Sudeste 0 939.3 0.1 55
2019-09-29 00:00:00 19.3 0 Calma 5 Sudeste 0 939.3 0.4 42
2019-09-28 23:00:00 20.2 0 Calma 3 Nordeste 0 939.2 0.5 41
2019-09-28 22:00:00 21.5 0 Calma 5 Nordeste 0 939.2 0.2 41
2019-09-28 21:00:00 23.1 2 Nordeste 4 Nordeste 0 938.9 -0.4 36
2019-09-28 20:00:00 25.4 0 Calma 6 Noroeste 0 938.7 -0.7 29
2019-09-28 19:00:00 27.4 2 Noroeste 13 Sudoeste 0 939 -1.2 25
2019-09-28 18:00:00 28.8 5 Sudoeste 16 Sudoeste 0 939.3 -1 23
2019-09-28 17:00:00 28.8 7 Sudoeste 17 Sudoeste 0 939.4 -1.5 23
2019-09-28 16:00:00 28.7 4 Sudoeste 17 Sudoeste 0 940.2 -1.3 26
2019-09-28 15:00:00 28 4 Sudoeste 15 Sudoeste 0 940.3 -1.4 27
2019-09-28 14:00:00 27.1 3 Sur 11 Sudoeste 0 940.9 -1.1 31
2019-09-28 13:00:00 24.8 4 Sudoeste 12 Sudoeste 0 941.5 0.2 36
2019-09-28 12:00:00 21.8 4 Sudoeste 12 Sudoeste 0 941.7 1.2 45
2019-09-28 11:00:00 19.3 5 Sur 12 Sudeste 0 942 2.2 58
2019-09-28 10:00:00 16.3 4 Sur 9 Sudoeste 0 941.3 1.4 68
2019-09-28 09:00:00 14 2 Sur 6 Sudeste 0 940.5 1 73
2019-09-28 08:00:00 12.7 0 Calma 4 Sudeste 0 939.8 0.2 77
2019-09-28 07:00:00 12.8 2 Nordeste 4 Norte 0 939.9 0.3 77
2019-09-28 06:00:00 13.2 2 Nordeste 6 Nordeste 0 939.5 -0.7 75
2019-09-28 05:00:00 14.3 3 Nordeste 5 Nordeste 0 939.6 -0.6 70
2019-09-28 04:00:00 16.1 0 Calma 3 Nordeste 0 939.6 -0.4 68
2019-09-28 03:00:00 16.6 0 Calma 4 Sudoeste 0 940.2 0.2 67
2019-09-28 02:00:00 17.1 0 Calma 5 Sudoeste 0 940.2 0.5 66
2019-09-28 01:00:00 17.7 4 Nordeste 8 Nordeste 0 940 0.5 63
2019-09-28 00:00:00 19 3 Nordeste 8 Nordeste 0 940 1.4 58
2019-09-27 23:00:00 20.8 0 Calma 4 Nordeste 0 939.7 1.5 50
2019-09-27 22:00:00 22.1 3 Nordeste 5 Nordeste 0 939.5 1 45
2019-09-27 21:00:00 23.6 2 Nordeste 5 Nordeste 0 938.6 0.2 41
2019-09-27 20:00:00 25.7 2 Nordeste 9 Nordeste 0 938.2 -0.4 34
2019-09-27 19:00:00 26.7 3 Nordeste 13 Nordeste 0 938.5 -0.7 31
2019-09-27 18:00:00 28 7 Sudoeste 18 Sudoeste 0 938.4 -0.7 30
2019-09-27 17:00:00 28.4 6 Noroeste 18 Sudoeste 0 938.6 -1.4 30
2019-09-27 16:00:00 27.9 3 Noroeste 18 Sudoeste 0 939.2 -0.7 31
2019-09-27 15:00:00 26.9 4 Noroeste 16 Noroeste 0 939.1 -1.5 32
2019-09-27 14:00:00 26 6 Sudoeste 14 Sudoeste 0 940 -0.9 34
2019-09-27 13:00:00 24.5 4 Sudoeste 9 Sudoeste 0 939.9 -0.5 37
2019-09-27 12:00:00 21.8 2 Sudoeste 8 Sudoeste 0 940.6 0.8 47
2019-09-27 11:00:00 19.6 4 Sudoeste 8 Sur 0 940.9 1.2 61
2019-09-27 10:00:00 16.3 3 Sudeste 11 Sudoeste 0 940.4 1 72
2019-09-27 09:00:00 14.3 2 Sur 7 Sudoeste 0 939.8 0.3 78
2019-09-27 08:00:00 14 0 Calma 4 Sudeste 0 939.7 0.8 79
2019-09-27 07:00:00 14.4 0 Calma 2 Nordeste 0 939.4 0 77
2019-09-27 06:00:00 15 0 Calma 4 Nordeste 0 939.5 -0.1 74
2019-09-27 05:00:00 15.6 0 Calma 8 Nordeste 0 938.9 -0.7 71
2019-09-27 04:00:00 15.7 3 Nordeste 6 Nordeste 0 939.4 -0.4 72
2019-09-27 03:00:00 16.3 3 Nordeste 6 Nordeste 0 939.6 -0.1 69
2019-09-27 02:00:00 17.9 3 Nordeste 14 Sudoeste 0 939.6 0.3 59
2019-09-27 01:00:00 18.5 4 Sur 9 Sudoeste 0 939.8 0.3 58
2019-09-27 00:00:00 19.3 0 Calma 4 Nordeste 0 939.7 0.7 52
2019-09-26 23:00:00 20.6 0 Calma 6 Sudeste 0 939.3 0.5 46
2019-09-26 22:00:00 21.6 2 Nordeste 6 Nordeste 0 939.5 0.7 43
2019-09-26 21:00:00 23 0 Calma 5 Nordeste 0 939 0.3 39
2019-09-26 20:00:00 24.4 0 Calma 5 Sudoeste 0 938.8 0.1 34
2019-09-26 19:00:00 25.8 2 Noroeste 8 Sudoeste 0 938.8 -0.2 31
2019-09-26 18:00:00 26.6 2 Norte 11 Noroeste 0 938.7 -0.7 30
2019-09-26 17:00:00 27.7 0 Calma 11 Sudoeste 0 938.7 -1.2 30
2019-09-26 16:00:00 26.3 4 Sudoeste 15 Sudoeste 0 939 -1.4 32
2019-09-26 15:00:00 26.1 5 Sudoeste 13 Sudeste 0 939.4 -1.7 33
2019-09-26 14:00:00 25.5 3 Sur 13 Sudoeste 0 939.9 -1.3 35
2019-09-26 13:00:00 24.6 4 Sur 13 Sudeste 0 940.4 0.3 41
2019-09-26 12:00:00 22.2 2 Sudeste 12 Sudoeste 0 941.1 1.4 49
2019-09-26 11:00:00 19.9 4 Sur 15 Sudeste 0 941.2 1.6 57
2019-09-26 10:00:00 17.1 4 Sur 13 Sudoeste 0 940.1 0.9 68
2019-09-26 09:00:00 14.2 0 Calma 10 Sudeste 0 939.7 0.9 74
2019-09-26 08:00:00 13.5 0 Calma 5 Sudeste 0 939.6 0.8 77
2019-09-26 07:00:00 13.6 0 Calma 4 Nordeste 0 939.2 0.4 77
2019-09-26 06:00:00 13.8 0 Calma 4 Nordeste 0 938.8 0.1 79
2019-09-26 05:00:00 14.1 0 Calma 6 Nordeste 0 938.8 0 78
2019-09-26 04:00:00 14.5 0 Calma 3 Sudoeste 0 938.8 -0.2 75
2019-09-26 03:00:00 15.4 0 Calma 4 Sudoeste 0 938.7 -0.5 71
2019-09-26 02:00:00 16.1 2 Nordeste 4 Nordeste 0 938.8 0.2 64
2019-09-26 01:00:00 16.8 0 Calma 4 Nordeste 0 939 0.4 62
2019-09-26 00:00:00 17.5 0 Calma 3 Nordeste 0 939.2 1 56
2019-09-25 23:00:00 17.8 0 Calma 8 Sudoeste 0 938.6 1 54
2019-09-25 22:00:00 18.8 0 Calma 5 Nordeste 0 938.6 1.1 47
2019-09-25 21:00:00 20.3 0 Calma 6 Noroeste 0 938.2 0.8 41
2019-09-25 20:00:00 21.8 3 Noroeste 14 Noroeste 0 937.6 0.2 36
2019-09-25 19:00:00 22.6 7 Noroeste 21 Noroeste 0 937.5 -0.3 35
2019-09-25 18:00:00 23 6 Noroeste 19 Noroeste 0 937.4 -0.8 35
2019-09-25 17:00:00 23.6 7 Noroeste 22 Noroeste 0 937.4 -1.4 36
2019-09-25 16:00:00 22.8 6 Norte 19 Noroeste 0 937.8 -1.2 37
2019-09-25 15:00:00 22.3 4 Norte 20 Noroeste 0 938.2 -0.8 41
2019-09-25 14:00:00 21.1 4 Oeste 19 Sudoeste 0 938.8 -0.5 46
2019-09-25 13:00:00 20.3 4 Oeste 17 Noroeste 0 939 0 50
2019-09-25 12:00:00 19.1 5 Norte 15 Noroeste 0 939 1.1 53
2019-09-25 11:00:00 17.8 6 Norte 20 Nordeste 0 939.3 1.7 56
2019-09-25 10:00:00 16.5 4 Norte 16 Nordeste 0 939 1.5 66
2019-09-25 09:00:00 15.5 4 Norte 12 Nordeste 0 937.9 0.6 83
2019-09-25 08:00:00 15.5 0 Calma 9 Noroeste 0 937.6 0.2 88
2019-09-25 07:00:00 15.8 0 Calma 12 Noroeste 0 937.5 -0.4 86
2019-09-25 06:00:00 16.5 4 Noroeste 18 Noroeste 0 937.3 -0.6 84
2019-09-25 05:00:00 16.9 3 Norte 15 Noroeste 0 937.4 -0.8 85
2019-09-25 04:00:00 17.5 3 Norte 12 Noroeste 0 937.9 -0.4 85
2019-09-25 03:00:00 17.6 3 Noroeste 9 Nordeste 0 937.9 -0.5 81
2019-09-25 02:00:00 18.3 4 Norte 11 Noroeste 0 938.2 0.1 78
2019-09-25 01:00:00 19.2 3 Nordeste 12 Noroeste 0 938.3 0.3 75
2019-09-25 00:00:00 19.8 3 Noroeste 14 Noroeste 0 938.4 0.5 72
2019-09-24 23:00:00 20.8 10 Noroeste 26 Noroeste 0 938.1 0.6 65
2019-09-24 22:00:00 21.5 8 Noroeste 17 Noroeste 0 938 0.7 59
2019-09-24 21:00:00 22.7 4 Noroeste 8 Noroeste 0 937.9 0.5 44
2019-09-24 20:00:00 24.8 3 Norte 10 Noroeste 0 937.5 -0.2 33
2019-09-24 19:00:00 26.5 4 Noroeste 14 Noroeste 0 937.3 -1.3 28
2019-09-24 18:00:00 27.6 2 Norte 13 Sudoeste 0 937.4 -1.6 26
2019-09-24 17:00:00 28.1 2 Oeste 17 Sudoeste 0 937.7 -2.5 28
2019-09-24 16:00:00 26.9 3 Oeste 14 Sudoeste 0 938.6 -2 30
2019-09-24 15:00:00 24.9 6 Noroeste 22 Sudoeste 0 939 -2.1 32
2019-09-24 14:00:00 23.6 6 Sudoeste 16 Sudoeste 0 940.2 -0.7 36
2019-09-24 13:00:00 22.4 5 Sudoeste 13 Sudoeste 0 940.6 0.2 43
2019-09-24 12:00:00 19.8 2 Sudoeste 9 Sudoeste 0 941.1 0.8 51
2019-09-24 11:00:00 17.8 4 Sudoeste 9 Sudoeste 0 940.9 0.7 66
2019-09-24 10:00:00 15 4 Sudoeste 9 Sudoeste 0 940.4 0.6 81
2019-09-24 09:00:00 13.3 0 Calma 4 Sudeste 0 940.3 0.8 85
2019-09-24 08:00:00 12.6 0 Calma 3 Sudoeste 0 940.2 0 84
2019-09-24 07:00:00 13 0 Calma 3 Nordeste 0 939.8 -0.3 81
2019-09-24 06:00:00 13.5 0 Calma 7 Nordeste 0 939.5 -1 79
2019-09-24 05:00:00 13.5 2 Nordeste 8 Nordeste 0 940.2 -0.7 81
2019-09-24 04:00:00 14 2 Nordeste 5 Nordeste 0 940.1 -0.5 78
2019-09-24 03:00:00 15.2 0 Calma 4 Sudeste 0 940.5 -0.4 72
2019-09-24 02:00:00 15.3 0 Calma 5 Sudoeste 0 940.9 -0.4 73
2019-09-24 01:00:00 16.3 0 Calma 3 Nordeste 0 940.6 -0.4 65
2019-09-24 00:00:00 17.1 0 Calma 4 Nordeste 0 940.9 0.4 62
2019-09-23 23:00:00 17.8 2 Nordeste 5 Nordeste 0 941.3 1.1 58
2019-09-23 22:00:00 18.6 0 Calma 5 Nordeste 0 941 0.7 55
2019-09-23 21:00:00 19.4 0 Calma 3 Sudeste 0 940.5 0.1 47
2019-09-23 20:00:00 20.9 0 Calma 6 Noroeste 0 940.2 0.1 41
2019-09-23 19:00:00 21.7 0 Calma 10 Noroeste 0 940.3 -0.2 40
2019-09-23 18:00:00 22.3 3 Noroeste 13 Sudoeste 0 940.4 -0.6 37
2019-09-23 17:00:00 22.6 0 Calma 12 Sudoeste 0 940.1 -1 39
2019-09-23 16:00:00 22.4 5 Sudoeste 15 Sudoeste 0 940.5 -0.9 39
2019-09-23 15:00:00 21.7 2 Oeste 13 Sudoeste 0 941 -1 43
2019-09-23 14:00:00 20.1 3 Sudoeste 13 Sudoeste 0 941.1 -1 46
2019-09-23 13:00:00 19.5 4 Noroeste 10 Noroeste 0 941.4 0 51
2019-09-23 12:00:00 17.6 3 Noroeste 9 Noroeste 0 942 1 60
2019-09-23 11:00:00 15.5 0 Calma 8 Sudoeste 0 942.1 1.7 72
2019-09-23 10:00:00 13.7 0 Calma 9 Sudeste 0 941.4 1.7 84
2019-09-23 09:00:00 12.3 0 Calma 2 Sudoeste 0 941 1.7 88
2019-09-23 08:00:00 11.6 0 Calma 0 Calma 0 940.4 0.8 87
2019-09-23 07:00:00 12.2 0 Calma -- -- 0 939.7 0.6 85
2019-09-23 06:00:00 12.5 0 Calma 3 Nordeste 0 939.3 0.2 84
2019-09-23 05:00:00 12.9 0 Calma -- -- 0 939.6 0.2 84
2019-09-23 04:00:00 13.1 0 Calma 5 Noroeste 0 939.1 0 82
2019-09-23 03:00:00 13.2 0 Calma 5 Noroeste 0 939.1 0.5 81
2019-09-23 02:00:00 13.7 0 Calma 5 Sudoeste 0 939.4 0.9 78
2019-09-23 01:00:00 14.3 3 Sudoeste 5 Sudoeste 0 939.1 1.3 74
2019-09-23 00:00:00 15.2 3 Noroeste 11 Noroeste 0 938.6 1.6 67
2019-09-22 23:00:00 15.7 0 Calma 10 Noroeste 0 938.5 2.2 63
2019-09-22 22:00:00 17 2 Norte 10 Noroeste 0 937.8 2 55
2019-09-22 21:00:00 17.6 2 Norte 11 Noroeste 0 937 1.4 52
2019-09-22 20:00:00 19.8 0 Calma 14 Nordeste 0 936.3 0.9 48
2019-09-22 19:00:00 20.8 4 Norte 18 Noroeste 0 935.8 0.2 47
2019-09-22 18:00:00 21.5 6 Noroeste 18 Norte 0 935.6 0 47
2019-09-22 17:00:00 21.9 8 Oeste 29 Sudoeste 0 935.4 -0.3 47
2019-09-22 16:00:00 21.3 13 Sudoeste 30 Sudoeste 0.1 935.6 0.1 51
2019-09-22 15:00:00 19.4 0 Calma 28 Sudoeste 1 935.6 -0.2 78
2019-09-22 14:00:00 18.8 7 Oeste 31 Sudoeste 0.5 935.7 0.3 85
2019-09-22 13:00:00 19.1 13 Sudoeste 28 Sudoeste 0 935.5 0.2 78
2019-09-22 12:00:00 18.5 14 Sudoeste 28 Sudoeste 0 935.8 0.9 80
2019-09-22 11:00:00 17.8 17 Sudoeste 27 Sudoeste 0 935.4 1 82
2019-09-22 10:00:00 17.7 12 Sudoeste 20 Sudoeste 0 935.3 0.8 84
2019-09-22 09:00:00 17 3 Sur 13 Sudeste 0 934.9 1 86
2019-09-22 08:00:00 16.8 2 Sudoeste 13 Sudoeste 0 934.4 0.1 85
2019-09-22 07:00:00 16.8 7 Sudoeste 18 Sudoeste 0 934.5 0.3 82
2019-09-22 06:00:00 17.1 7 Sudoeste 13 Sudoeste 0 933.9 -0.8 80
2019-09-22 05:00:00 16.6 6 Sudoeste 14 Sudoeste 0 934.3 -0.3 83
2019-09-22 04:00:00 16.9 4 Sudoeste 10 Sudoeste 0 934.2 -0.3 81
2019-09-22 03:00:00 16.6 6 Sudoeste 11 Sudoeste 0 934.7 0 82
2019-09-22 02:00:00 16.8 7 Sudoeste 13 Sudoeste 0 934.6 -0.3 81
2019-09-22 01:00:00 17.2 10 Sudoeste 16 Sudoeste 0 934.5 0 81
2019-09-22 00:00:00 17.3 6 Sudoeste 18 Sudoeste 0 934.7 0.7 80
2019-09-21 23:00:00 18.4 13 Sudoeste 18 Sudoeste 0 934.9 1.4 74
2019-09-21 22:00:00 19.1 6 Sudoeste 20 Sudoeste 0 934.5 1.1 70
2019-09-21 21:00:00 20 14 Sudoeste 23 Sudoeste 0 934 0.4 63
2019-09-21 20:00:00 21.1 6 Sudoeste 14 Sudoeste 0 933.5 0 63
2019-09-21 19:00:00 21.6 10 Sudoeste 24 Sudoeste 0 933.4 -1 59
2019-09-21 18:00:00 21.7 15 Sudoeste 25 Sudoeste 0 933.6 -1.3 58
2019-09-21 17:00:00 21.8 10 Sudoeste 22 Sudoeste 0 933.5 -1.6 59
2019-09-21 16:00:00 21.5 8 Sudoeste 17 Sur 0 934.4 -1.1 60
2019-09-21 15:00:00 21.3 6 Sudoeste 18 Sudoeste 0 934.9 -0.5 59
2019-09-21 14:00:00 20.9 6 Sur 17 Sudeste 0 935.1 -0.2 61
2019-09-21 13:00:00 20.1 6 Sudoeste 14 Sudoeste 0 935.5 0.4 65
2019-09-21 12:00:00 20.3 4 Sur 12 Sudeste 0 935.4 0.4 69
2019-09-21 11:00:00 18.9 4 Sudoeste 10 Sudoeste 0 935.3 0 74
2019-09-21 10:00:00 17.6 4 Sudoeste 9 Sudoeste 0 935.1 0.2 85
2019-09-21 09:00:00 16.2 0 Calma 6 Sudeste 0 935 0 90
2019-09-21 08:00:00 16 2 Sur 11 Sudeste 0 935.3 0.8 89
2019-09-21 07:00:00 15.8 4 Sur 10 Sudeste 0 934.9 -0.4 87
2019-09-21 06:00:00 16.3 2 Sudeste 12 Sudeste 0.1 935 -0.4 87
2019-09-21 05:00:00 16.3 0 Calma 15 Sudoeste 0.1 934.5 -0.6 87
2019-09-21 04:00:00 16.4 6 Sur 19 Sudoeste 0 935.3 0 89
2019-09-21 03:00:00 17.8 4 Sudeste 15 Sudeste 0.1 935.4 0.1 90
2019-09-21 02:00:00 18.1 4 Sudeste 17 Sudeste 0 935.1 0 91
2019-09-21 01:00:00 18.4 4 Sudeste 22 Sudeste 2.6 935.3 0.9 91
2019-09-21 00:00:00 17.6 5 Sudeste 22 Sudoeste 1.6 935.3 0.4 88
2019-09-20 23:00:00 19.3 8 Sudeste 24 Sudeste 0 935.1 0.7 80
2019-09-20 22:00:00 20.2 7 Sudeste 24 Sudeste 0 934.4 0.1 74
2019-09-20 21:00:00 20.9 8 Sudeste 27 Sudeste 0 934.9 0.9 70
2019-09-20 20:00:00 21.3 10 Sur 37 Sudeste 0 934.4 -0.5 68
2019-09-20 19:00:00 23.4 12 Sur 35 Sudeste 0 934.3 -1.4 53
2019-09-20 18:00:00 24.2 10 Sudeste 33 Sudeste 0 934 -1.9 50
2019-09-20 17:00:00 24.5 8 Sudeste 30 Sudeste 0 934.9 -1.4 51
2019-09-20 16:00:00 24 9 Sudeste 32 Sudeste 0 935.7 -1.1 53
2019-09-20 15:00:00 24.2 10 Sudeste 28 Sudeste 0 935.9 -1.3 52
2019-09-20 14:00:00 24.1 6 Sudeste 27 Sudeste 0 936.3 -1.1 55
2019-09-20 13:00:00 22.2 8 Sudeste 28 Sudeste 0 936.8 -0.3 61
2019-09-20 12:00:00 21.2 6 Sudeste 31 Sudeste 0 937.2 -0.1 67
2019-09-20 11:00:00 19.7 8 Sudeste 27 Sudeste 0 937.4 0.6 75
2019-09-20 10:00:00 18.7 8 Sudeste 28 Sudoeste 0 937.1 0.6 81
2019-09-20 09:00:00 17.9 9 Sudeste 32 Sudeste 0 937.3 0.7 85
2019-09-20 08:00:00 17.4 9 Sudeste 31 Sudeste 0 936.8 -0.1 85
2019-09-20 07:00:00 17.3 8 Sudeste 33 Sudeste 0 936.5 -0.6 83
2019-09-20 06:00:00 17.6 9 Sudeste 28 Sudeste 0 936.6 -0.5 80
2019-09-20 05:00:00 18.1 10 Sudeste 28 Sudeste 0 936.9 0 78
2019-09-20 04:00:00 18.4 9 Sudeste 27 Sudeste 0 937.1 0.2 78
2019-09-20 03:00:00 18.7 9 Sudeste 27 Sudeste 0 937.1 0.1 77
2019-09-20 02:00:00 19.2 8 Sudeste 23 Sudeste 0 936.9 -0.1 75
2019-09-20 01:00:00 19.9 7 Sudeste 22 Sudeste 0 936.9 0.3 73
2019-09-20 00:00:00 20.7 7 Sudeste 30 Sudeste 0 937 0.5 62